M V Stampede — V70B4 — position and weather

sailwx.info

Track history (hours):
 
Tides and Currents Weather Stations Pressure Air Temp Water Temp Dewpoint Dewpoint Depression Visibility Wind Speed Wind Dir Waves Ship Positions

M V Stampede

Last reported at 2015-Apr-01 04:27 UTC. Time now 2015-Apr-01 05:57 UTC.
Position N 26°07' W 080°06'.

Length 35 m; draft 3.2 m.

Type: Pleasure craft. MMSI: 538070463.

Date/timePositionNaut miles runAvg speedWind from/ knotsBaromVisibWave heightAir tempDewpointWater temp
2015-Apr-01 04:27N 26°07' W 080°06'0 0.0
2015-Apr-01 03:27N 26°07' W 080°06'0 0.0
2015-Apr-01 02:27N 26°07' W 080°06'0 0.0
2015-Apr-01 01:30N 26°07' W 080°06'0 0.0
2015-Apr-01 00:27N 26°07' W 080°06'0 0.0
2015-Mar-31 23:30N 26°07' W 080°06'0 0.0
2015-Mar-31 22:33N 26°07' W 080°06'0 0.0
2015-Mar-31 21:33N 26°07' W 080°06'0 0.0
2015-Mar-31 20:33N 26°07' W 080°06'0 0.0
2015-Mar-31 19:33N 26°07' W 080°06'0 0.0
2015-Mar-31 18:33N 26°07' W 080°06'0 0.0
2015-Mar-31 17:33N 26°07' W 080°06'0 0.0
2015-Mar-31 16:33N 26°07' W 080°06'0 0.0
2015-Mar-31 15:24N 26°07' W 080°06'0 0.0
2015-Mar-31 14:24N 26°07' W 080°06'0 0.0
2015-Mar-31 13:27N 26°07' W 080°06'0 0.0
2015-Mar-31 12:27N 26°07' W 080°06'0 0.0
2015-Mar-31 11:27N 26°07' W 080°06'0 0.0
2015-Mar-31 10:30N 26°07' W 080°06'0 0.0
2015-Mar-31 09:27N 26°07' W 080°06'0 0.0
2015-Mar-31 08:27N 26°07' W 080°06'0 0.0
2015-Mar-31 07:33N 26°07' W 080°06'0 0.0
2015-Mar-31 06:33N 26°07' W 080°06'0 0.0
2015-Mar-31 05:33N 26°07' W 080°06'0 0.0
2015-Mar-31 04:33N 26°07' W 080°06'0 0.0
2015-Mar-31 03:21N 26°07' W 080°06'0 0.0
2015-Mar-31 02:33N 26°07' W 080°06'0 0.0
2015-Mar-31 01:33N 26°07' W 080°06'0 0.0
2015-Mar-31 00:24N 26°07' W 080°06'0 0.0
2015-Mar-30 23:33N 26°07' W 080°06'0 0.0
2015-Mar-30 22:33N 26°07' W 080°06'0 0.0
2015-Mar-30 21:33N 26°07' W 080°06'1 1.1
2015-Mar-30 20:33N 26°06' W 080°07'6 6.3
2015-Mar-30 19:33N 26°11' W 080°03'7 7.0
2015-Mar-30 18:33N 26°18' W 080°02'7 6.6
2015-Mar-30 17:33N 26°25' W 080°02'7 7.1
2015-Mar-30 16:33N 26°32' W 080°00'14 4.4
2015-Mar-30 13:25N 26°45' W 080°03'0 0.0
2015-Mar-30 12:22N 26°45' W 080°03'0 0.0
2015-Mar-30 11:10N 26°45' W 080°03'0 0.0
2015-Mar-30 10:31N 26°45' W 080°03'0 0.0
2015-Mar-30 02:19N 26°45' W 080°03'0 0.0
2015-Mar-30 01:28N 26°45' W 080°03'0 0.0
2015-Mar-29 23:04N 26°45' W 080°03'  
2015-Mar-23 18:12N 26°45' W 080°03'12 7.0
2015-Mar-23 16:33N 26°34' W 080°01'1111.2
2015-Mar-23 15:33N 26°22' W 080°02'1211.5
2015-Mar-23 14:33N 26°11' W 080°03'5 5.1
2015-Mar-23 13:33N 26°07' W 080°07'0 0.1
2015-Mar-23 12:26N 26°07' W 080°06'0 0.0
2015-Mar-23 11:29N 26°07' W 080°06'0 0.0
2015-Mar-23 10:29N 26°07' W 080°06'0 0.0
2015-Mar-23 09:29N 26°07' W 080°06'0 0.0
2015-Mar-23 08:32N 26°07' W 080°06'0 0.0
2015-Mar-23 07:32N 26°07' W 080°06'0 0.0
2015-Mar-23 06:29N 26°07' W 080°06'0 0.0
2015-Mar-23 05:32N 26°07' W 080°06'0 0.0
2015-Mar-23 04:32N 26°07' W 080°06'0 0.0
2015-Mar-23 03:32N 26°07' W 080°06'0 0.0
2015-Mar-23 02:32N 26°07' W 080°06'0 0.0
2015-Mar-23 01:23N 26°07' W 080°06'0 0.0
2015-Mar-23 00:23N 26°07' W 080°06'0 0.0
2015-Mar-22 23:26N 26°07' W 080°06'0 0.0
2015-Mar-22 22:26N 26°07' W 080°06'0 0.0
2015-Mar-22 21:29N 26°07' W 080°06'0 0.0
2015-Mar-22 20:29N 26°07' W 080°06'0 0.0
2015-Mar-22 19:29N 26°07' W 080°06'0 0.0
2015-Mar-22 18:29N 26°07' W 080°06'0 0.0
2015-Mar-22 17:32N 26°07' W 080°06'0 0.0
2015-Mar-22 16:32N 26°07' W 080°06'0 0.0
2015-Mar-22 15:32N 26°07' W 080°06'0 0.0
2015-Mar-22 14:32N 26°07' W 080°06'0 0.0
2015-Mar-22 13:32N 26°07' W 080°06'0 0.0
2015-Mar-22 12:32N 26°07' W 080°06'0 0.0
2015-Mar-22 11:23N 26°07' W 080°06'0 0.0
2015-Mar-22 10:23N 26°07' W 080°06'0 0.0
2015-Mar-22 09:26N 26°07' W 080°06'0 0.0
2015-Mar-22 08:26N 26°07' W 080°06'0 0.0
2015-Mar-22 07:26N 26°07' W 080°06'0 0.0
2015-Mar-22 06:26N 26°07' W 080°06'0 0.0
2015-Mar-22 05:29N 26°07' W 080°06'0 0.0
2015-Mar-22 04:29N 26°07' W 080°06'  
Track history (hours):
 
Tides and Currents Weather Stations Pressure Air Temp Water Temp Dewpoint Dewpoint Depression Visibility Wind Speed Wind Dir Waves Ship Positions

M V Stampede

Last reported at 2015-Apr-01 04:27 UTC. Time now 2015-Apr-01 05:57 UTC.
Position N 26°07' W 080°06'.

Length 35 m; draft 3.2 m.

Type: Pleasure craft. MMSI: 538070463.

Date/timePositionNaut miles runAvg speedWind from/ knotsBaromVisibWave heightAir tempDewpointWater temp
2015-Apr-01 04:27N 26°07' W 080°06'0 0.0
2015-Apr-01 03:27N 26°07' W 080°06'0 0.0
2015-Apr-01 02:27N 26°07' W 080°06'0 0.0
2015-Apr-01 01:30N 26°07' W 080°06'0 0.0
2015-Apr-01 00:27N 26°07' W 080°06'0 0.0
2015-Mar-31 23:30N 26°07' W 080°06'0 0.0
2015-Mar-31 22:33N 26°07' W 080°06'0 0.0
2015-Mar-31 21:33N 26°07' W 080°06'0 0.0
2015-Mar-31 20:33N 26°07' W 080°06'0 0.0
2015-Mar-31 19:33N 26°07' W 080°06'0 0.0
2015-Mar-31 18:33N 26°07' W 080°06'0 0.0
2015-Mar-31 17:33N 26°07' W 080°06'0 0.0
2015-Mar-31 16:33N 26°07' W 080°06'0 0.0
2015-Mar-31 15:24N 26°07' W 080°06'0 0.0
2015-Mar-31 14:24N 26°07' W 080°06'0 0.0
2015-Mar-31 13:27N 26°07' W 080°06'0 0.0
2015-Mar-31 12:27N 26°07' W 080°06'0 0.0
2015-Mar-31 11:27N 26°07' W 080°06'0 0.0
2015-Mar-31 10:30N 26°07' W 080°06'0 0.0
2015-Mar-31 09:27N 26°07' W 080°06'0 0.0
2015-Mar-31 08:27N 26°07' W 080°06'0 0.0
2015-Mar-31 07:33N 26°07' W 080°06'0 0.0
2015-Mar-31 06:33N 26°07' W 080°06'0 0.0
2015-Mar-31 05:33N 26°07' W 080°06'0 0.0
2015-Mar-31 04:33N 26°07' W 080°06'0 0.0
2015-Mar-31 03:21N 26°07' W 080°06'0 0.0
2015-Mar-31 02:33N 26°07' W 080°06'0 0.0
2015-Mar-31 01:33N 26°07' W 080°06'0 0.0
2015-Mar-31 00:24N 26°07' W 080°06'0 0.0
2015-Mar-30 23:33N 26°07' W 080°06'0 0.0
2015-Mar-30 22:33N 26°07' W 080°06'0 0.0
2015-Mar-30 21:33N 26°07' W 080°06'1 1.1
2015-Mar-30 20:33N 26°06' W 080°07'6 6.3
2015-Mar-30 19:33N 26°11' W 080°03'7 7.0
2015-Mar-30 18:33N 26°18' W 080°02'7 6.6
2015-Mar-30 17:33N 26°25' W 080°02'7 7.1
2015-Mar-30 16:33N 26°32' W 080°00'14 4.4
2015-Mar-30 13:25N 26°45' W 080°03'0 0.0
2015-Mar-30 12:22N 26°45' W 080°03'0 0.0
2015-Mar-30 11:10N 26°45' W 080°03'0 0.0
2015-Mar-30 10:31N 26°45' W 080°03'0 0.0
2015-Mar-30 02:19N 26°45' W 080°03'0 0.0
2015-Mar-30 01:28N 26°45' W 080°03'0 0.0
2015-Mar-29 23:04N 26°45' W 080°03'  
2015-Mar-23 18:12N 26°45' W 080°03'12 7.0
2015-Mar-23 16:33N 26°34' W 080°01'1111.2
2015-Mar-23 15:33N 26°22' W 080°02'1211.5
2015-Mar-23 14:33N 26°11' W 080°03'5 5.1
2015-Mar-23 13:33N 26°07' W 080°07'0 0.1
2015-Mar-23 12:26N 26°07' W 080°06'0 0.0
2015-Mar-23 11:29N 26°07' W 080°06'0 0.0
2015-Mar-23 10:29N 26°07' W 080°06'0 0.0
2015-Mar-23 09:29N 26°07' W 080°06'0 0.0
2015-Mar-23 08:32N 26°07' W 080°06'0 0.0
2015-Mar-23 07:32N 26°07' W 080°06'0 0.0
2015-Mar-23 06:29N 26°07' W 080°06'0 0.0
2015-Mar-23 05:32N 26°07' W 080°06'0 0.0
2015-Mar-23 04:32N 26°07' W 080°06'0 0.0
2015-Mar-23 03:32N 26°07' W 080°06'0 0.0
2015-Mar-23 02:32N 26°07' W 080°06'0 0.0
2015-Mar-23 01:23N 26°07' W 080°06'0 0.0
2015-Mar-23 00:23N 26°07' W 080°06'0 0.0
2015-Mar-22 23:26N 26°07' W 080°06'0 0.0
2015-Mar-22 22:26N 26°07' W 080°06'0 0.0
2015-Mar-22 21:29N 26°07' W 080°06'0 0.0
2015-Mar-22 20:29N 26°07' W 080°06'0 0.0
2015-Mar-22 19:29N 26°07' W 080°06'0 0.0
2015-Mar-22 18:29N 26°07' W 080°06'0 0.0
2015-Mar-22 17:32N 26°07' W 080°06'0 0.0
2015-Mar-22 16:32N 26°07' W 080°06'0 0.0
2015-Mar-22 15:32N 26°07' W 080°06'0 0.0
2015-Mar-22 14:32N 26°07' W 080°06'0 0.0
2015-Mar-22 13:32N 26°07' W 080°06'0 0.0
2015-Mar-22 12:32N 26°07' W 080°06'0 0.0
2015-Mar-22 11:23N 26°07' W 080°06'0 0.0
2015-Mar-22 10:23N 26°07' W 080°06'0 0.0
2015-Mar-22 09:26N 26°07' W 080°06'0 0.0
2015-Mar-22 08:26N 26°07' W 080°06'0 0.0
2015-Mar-22 07:26N 26°07' W 080°06'0 0.0
2015-Mar-22 06:26N 26°07' W 080°06'0 0.0
2015-Mar-22 05:29N 26°07' W 080°06'0 0.0
2015-Mar-22 04:29N 26°07' W 080°06'  

Dump ship's entire track history